Terminal Aerodrome Forecast
Issued by NWS

Home | Current Version | Previous Version | Text Only | Print | Product List | Glossary On
Versions: 1 2 3 4 5 6 7 8 9 10 11 12 13 14 15 16 17 18 19 20 21 22
000
FTUS44 KLZK 191700
TAFLLQ
TAF
KLLQ 191739Z 1918/2018 25007KT P6SM SKC
     FM192100 22009KT P6SM SCT050 BKN100
      TEMPO 1922/2002 5SM TSRA BR OVC025CB
     FM200200 22010KT 5SM TSRA BR BKN015CB OVC040
     FM200800 26010G20KT P6SM BKN040
     FM201200 29013G23KT P6SM SCT250=

USA.gov is the U.S. government's official web portal to all federal, state and local government web resources and services.